sensor_id;sensor_type;location;lat;lon;timestamp;temperature;humidity
54832;DHT22;40730;53.068;6.572;2022-08-19T00:01:55;14.40;99.90
54832;DHT22;40730;53.068;6.572;2022-08-19T00:04:33;14.40;99.90
54832;DHT22;40730;53.068;6.572;2022-08-19T00:07:03;14.40;99.90
54832;DHT22;40730;53.068;6.572;2022-08-19T00:09:29;14.40;99.90
54832;DHT22;40730;53.068;6.572;2022-08-19T00:11:56;14.40;99.90
54832;DHT22;40730;53.068;6.572;2022-08-19T00:14:24;14.50;99.90
54832;DHT22;40730;53.068;6.572;2022-08-19T00:16:52;14.40;99.90
54832;DHT22;40730;53.068;6.572;2022-08-19T00:19:21;14.40;99.90
54832;DHT22;40730;53.068;6.572;2022-08-19T00:21:47;14.40;99.90
54832;DHT22;40730;53.068;6.572;2022-08-19T00:24:14;14.40;99.90
54832;DHT22;40730;53.068;6.572;2022-08-19T00:26:41;14.40;99.90
54832;DHT22;40730;53.068;6.572;2022-08-19T00:29:09;14.40;99.90
54832;DHT22;40730;53.068;6.572;2022-08-19T00:31:35;14.30;99.90
54832;DHT22;40730;53.068;6.572;2022-08-19T00:34:01;14.30;99.90
54832;DHT22;40730;53.068;6.572;2022-08-19T00:36:26;14.30;99.90
54832;DHT22;40730;53.068;6.572;2022-08-19T00:38:53;14.30;99.90
54832;DHT22;40730;53.068;6.572;2022-08-19T00:41:21;14.30;99.90
54832;DHT22;40730;53.068;6.572;2022-08-19T00:44:18;14.30;99.90
54832;DHT22;40730;53.068;6.572;2022-08-19T00:46:48;14.30;99.90
54832;DHT22;40730;53.068;6.572;2022-08-19T00:49:20;14.30;99.90
54832;DHT22;40730;53.068;6.572;2022-08-19T00:51:51;14.20;99.90
54832;DHT22;40730;53.068;6.572;2022-08-19T00:54:18;14.20;99.90
54832;DHT22;40730;53.068;6.572;2022-08-19T00:56:44;14.10;99.90
54832;DHT22;40730;53.068;6.572;2022-08-19T00:59:12;14.10;99.90
54832;DHT22;40730;53.068;6.572;2022-08-19T01:01:39;14.10;99.90
54832;DHT22;40730;53.068;6.572;2022-08-19T01:04:06;14.00;99.90
54832;DHT22;40730;53.068;6.572;2022-08-19T01:06:33;14.00;99.90
54832;DHT22;40730;53.068;6.572;2022-08-19T01:09:00;13.90;99.90
54832;DHT22;40730;53.068;6.572;2022-08-19T01:11:30;13.80;99.90
54832;DHT22;40730;53.068;6.572;2022-08-19T01:13:57;13.90;99.90
54832;DHT22;40730;53.068;6.572;2022-08-19T01:16:25;13.80;99.90
54832;DHT22;40730;53.068;6.572;2022-08-19T01:18:52;13.80;99.90
54832;DHT22;40730;53.068;6.572;2022-08-19T01:21:35;13.80;99.90
54832;DHT22;40730;53.068;6.572;2022-08-19T01:24:03;13.80;99.90
54832;DHT22;40730;53.068;6.572;2022-08-19T01:26:29;13.80;99.90
54832;DHT22;40730;53.068;6.572;2022-08-19T01:28:56;13.80;99.90
54832;DHT22;40730;53.068;6.572;2022-08-19T01:31:25;13.80;99.90
54832;DHT22;40730;53.068;6.572;2022-08-19T01:33:52;13.80;99.90
54832;DHT22;40730;53.068;6.572;2022-08-19T01:36:25;13.80;99.90
54832;DHT22;40730;53.068;6.572;2022-08-19T01:38:52;13.70;99.90
54832;DHT22;40730;53.068;6.572;2022-08-19T01:41:18;13.70;99.90
54832;DHT22;40730;53.068;6.572;2022-08-19T01:43:44;13.70;99.90
54832;DHT22;40730;53.068;6.572;2022-08-19T01:46:10;13.70;99.90
54832;DHT22;40730;53.068;6.572;2022-08-19T01:48:38;13.70;99.90
54832;DHT22;40730;53.068;6.572;2022-08-19T01:51:05;13.60;99.90
54832;DHT22;40730;53.068;6.572;2022-08-19T01:53:31;13.50;99.90
54832;DHT22;40730;53.068;6.572;2022-08-19T01:55:57;13.40;99.90
54832;DHT22;40730;53.068;6.572;2022-08-19T01:58:27;13.40;99.90
54832;DHT22;40730;53.068;6.572;2022-08-19T02:00:55;13.40;99.90
54832;DHT22;40730;53.068;6.572;2022-08-19T02:03:21;13.40;99.90
54832;DHT22;40730;53.068;6.572;2022-08-19T02:05:47;13.40;99.90
54832;DHT22;40730;53.068;6.572;2022-08-19T02:08:15;13.40;99.90
54832;DHT22;40730;53.068;6.572;2022-08-19T02:10:43;13.40;99.90
54832;DHT22;40730;53.068;6.572;2022-08-19T02:13:10;13.40;99.90
54832;DHT22;40730;53.068;6.572;2022-08-19T02:15:36;13.50;99.90
54832;DHT22;40730;53.068;6.572;2022-08-19T02:18:02;13.40;99.90
54832;DHT22;40730;53.068;6.572;2022-08-19T02:20:28;13.40;99.90
54832;DHT22;40730;53.068;6.572;2022-08-19T02:22:53;13.40;99.90
54832;DHT22;40730;53.068;6.572;2022-08-19T02:25:19;13.40;99.90
54832;DHT22;40730;53.068;6.572;2022-08-19T02:27:44;13.40;99.90
54832;DHT22;40730;53.068;6.572;2022-08-19T02:30:15;13.40;99.90
54832;DHT22;40730;53.068;6.572;2022-08-19T02:32:41;13.50;99.90
54832;DHT22;40730;53.068;6.572;2022-08-19T02:35:08;13.50;99.90
54832;DHT22;40730;53.068;6.572;2022-08-19T02:37:34;13.60;99.90
54832;DHT22;40730;53.068;6.572;2022-08-19T02:40:18;13.60;99.90
54832;DHT22;40730;53.068;6.572;2022-08-19T02:42:44;13.60;99.90
54832;DHT22;40730;53.068;6.572;2022-08-19T02:45:12;13.60;99.90
54832;DHT22;40730;53.068;6.572;2022-08-19T02:47:38;13.60;99.90
54832;DHT22;40730;53.068;6.572;2022-08-19T02:50:04;13.60;99.90
54832;DHT22;40730;53.068;6.572;2022-08-19T02:52:31;13.70;99.90
54832;DHT22;40730;53.068;6.572;2022-08-19T02:54:57;13.70;99.90
54832;DHT22;40730;53.068;6.572;2022-08-19T02:57:23;13.70;99.90
54832;DHT22;40730;53.068;6.572;2022-08-19T02:59:49;13.70;99.90
54832;DHT22;40730;53.068;6.572;2022-08-19T03:02:15;13.70;99.90
54832;DHT22;40730;53.068;6.572;2022-08-19T03:04:41;13.60;99.90
54832;DHT22;40730;53.068;6.572;2022-08-19T03:07:08;13.60;99.90
54832;DHT22;40730;53.068;6.572;2022-08-19T03:09:36;13.50;99.90
54832;DHT22;40730;53.068;6.572;2022-08-19T03:12:03;13.20;99.90
54832;DHT22;40730;53.068;6.572;2022-08-19T03:14:31;13.40;99.90
54832;DHT22;40730;53.068;6.572;2022-08-19T03:16:57;13.30;99.90
54832;DHT22;40730;53.068;6.572;2022-08-19T03:19:23;13.20;99.90
54832;DHT22;40730;53.068;6.572;2022-08-19T03:21:49;13.20;99.90
54832;DHT22;40730;53.068;6.572;2022-08-19T03:24:16;13.20;99.90
54832;DHT22;40730;53.068;6.572;2022-08-19T03:26:45;13.20;99.90
54832;DHT22;40730;53.068;6.572;2022-08-19T03:29:11;13.20;99.90
54832;DHT22;40730;53.068;6.572;2022-08-19T03:31:38;13.20;99.90
54832;DHT22;40730;53.068;6.572;2022-08-19T03:34:04;13.20;99.90
54832;DHT22;40730;53.068;6.572;2022-08-19T03:36:30;13.10;99.90
54832;DHT22;40730;53.068;6.572;2022-08-19T03:38:58;13.00;99.90
54832;DHT22;40730;53.068;6.572;2022-08-19T03:41:28;13.00;99.90
54832;DHT22;40730;53.068;6.572;2022-08-19T03:43:54;13.00;99.90
54832;DHT22;40730;53.068;6.572;2022-08-19T03:46:25;13.00;99.90
54832;DHT22;40730;53.068;6.572;2022-08-19T03:48:53;13.00;99.90
54832;DHT22;40730;53.068;6.572;2022-08-19T03:51:23;13.10;99.90
54832;DHT22;40730;53.068;6.572;2022-08-19T03:53:50;13.10;99.90
54832;DHT22;40730;53.068;6.572;2022-08-19T03:56:16;13.20;99.90
54832;DHT22;40730;53.068;6.572;2022-08-19T03:58:42;13.30;99.90
54832;DHT22;40730;53.068;6.572;2022-08-19T04:01:13;13.30;99.90
54832;DHT22;40730;53.068;6.572;2022-08-19T04:03:40;13.30;99.90
54832;DHT22;40730;53.068;6.572;2022-08-19T04:06:11;13.30;99.90
54832;DHT22;40730;53.068;6.572;2022-08-19T04:08:39;13.30;99.90
54832;DHT22;40730;53.068;6.572;2022-08-19T04:11:13;13.30;99.90
54832;DHT22;40730;53.068;6.572;2022-08-19T04:13:39;13.20;99.90
54832;DHT22;40730;53.068;6.572;2022-08-19T04:16:06;13.30;99.90
54832;DHT22;40730;53.068;6.572;2022-08-19T04:18:36;13.20;99.90
54832;DHT22;40730;53.068;6.572;2022-08-19T04:21:02;13.30;99.90
54832;DHT22;40730;53.068;6.572;2022-08-19T04:23:28;13.30;99.90
54832;DHT22;40730;53.068;6.572;2022-08-19T04:25:54;13.20;99.90
54832;DHT22;40730;53.068;6.572;2022-08-19T04:28:20;13.30;99.90
54832;DHT22;40730;53.068;6.572;2022-08-19T04:30:48;13.30;99.90
54832;DHT22;40730;53.068;6.572;2022-08-19T04:33:17;13.30;99.90
54832;DHT22;40730;53.068;6.572;2022-08-19T04:35:46;13.30;99.90
54832;DHT22;40730;53.068;6.572;2022-08-19T04:38:13;13.30;99.90
54832;DHT22;40730;53.068;6.572;2022-08-19T04:40:44;13.30;99.90
54832;DHT22;40730;53.068;6.572;2022-08-19T04:43:29;13.30;99.90
54832;DHT22;40730;53.068;6.572;2022-08-19T04:45:55;13.40;99.90
54832;DHT22;40730;53.068;6.572;2022-08-19T04:48:21;13.40;99.90
54832;DHT22;40730;53.068;6.572;2022-08-19T04:50:56;13.50;99.90
54832;DHT22;40730;53.068;6.572;2022-08-19T04:53:26;13.50;99.90
54832;DHT22;40730;53.068;6.572;2022-08-19T04:55:54;13.30;99.90
54832;DHT22;40730;53.068;6.572;2022-08-19T04:58:20;13.20;99.90
54832;DHT22;40730;53.068;6.572;2022-08-19T05:00:45;13.20;99.90
54832;DHT22;40730;53.068;6.572;2022-08-19T05:03:11;13.20;99.90
54832;DHT22;40730;53.068;6.572;2022-08-19T05:05:44;13.30;99.90
54832;DHT22;40730;53.068;6.572;2022-08-19T05:08:12;13.30;99.90
54832;DHT22;40730;53.068;6.572;2022-08-19T05:10:38;13.40;99.90
54832;DHT22;40730;53.068;6.572;2022-08-19T05:13:04;13.50;99.90
54832;DHT22;40730;53.068;6.572;2022-08-19T05:15:31;13.50;99.90
54832;DHT22;40730;53.068;6.572;2022-08-19T05:17:56;13.60;99.90
54832;DHT22;40730;53.068;6.572;2022-08-19T05:20:40;13.70;99.90
54832;DHT22;40730;53.068;6.572;2022-08-19T05:23:25;13.70;99.90
54832;DHT22;40730;53.068;6.572;2022-08-19T05:25:51;13.70;99.90
54832;DHT22;40730;53.068;6.572;2022-08-19T05:28:18;13.60;99.90
54832;DHT22;40730;53.068;6.572;2022-08-19T05:30:44;13.50;99.90
54832;DHT22;40730;53.068;6.572;2022-08-19T05:33:11;13.50;99.90
54832;DHT22;40730;53.068;6.572;2022-08-19T05:35:38;13.50;99.90
54832;DHT22;40730;53.068;6.572;2022-08-19T05:38:05;13.60;99.90
54832;DHT22;40730;53.068;6.572;2022-08-19T05:40:34;13.70;99.90
54832;DHT22;40730;53.068;6.572;2022-08-19T05:43:02;13.70;99.90
54832;DHT22;40730;53.068;6.572;2022-08-19T05:45:28;13.80;99.90
54832;DHT22;40730;53.068;6.572;2022-08-19T05:47:54;13.90;99.90
54832;DHT22;40730;53.068;6.572;2022-08-19T05:50:20;14.00;99.90
54832;DHT22;40730;53.068;6.572;2022-08-19T05:52:45;14.10;99.90
54832;DHT22;40730;53.068;6.572;2022-08-19T05:55:11;14.20;99.90
54832;DHT22;40730;53.068;6.572;2022-08-19T05:57:37;14.30;99.90
54832;DHT22;40730;53.068;6.572;2022-08-19T06:00:06;14.50;99.90
54832;DHT22;40730;53.068;6.572;2022-08-19T06:02:36;14.60;99.90
54832;DHT22;40730;53.068;6.572;2022-08-19T06:05:04;14.70;99.90
54832;DHT22;40730;53.068;6.572;2022-08-19T06:07:32;14.90;99.90
54832;DHT22;40730;53.068;6.572;2022-08-19T06:09:58;15.00;99.90
54832;DHT22;40730;53.068;6.572;2022-08-19T06:12:23;15.10;99.90
54832;DHT22;40730;53.068;6.572;2022-08-19T06:14:54;15.20;99.90
54832;DHT22;40730;53.068;6.572;2022-08-19T06:17:20;15.40;99.90
54832;DHT22;40730;53.068;6.572;2022-08-19T06:19:48;15.40;99.90
54832;DHT22;40730;53.068;6.572;2022-08-19T06:22:15;15.60;99.90
54832;DHT22;40730;53.068;6.572;2022-08-19T06:24:41;15.80;99.90
54832;DHT22;40730;53.068;6.572;2022-08-19T06:27:07;15.90;99.90
54832;DHT22;40730;53.068;6.572;2022-08-19T06:29:33;16.10;99.90
54832;DHT22;40730;53.068;6.572;2022-08-19T06:32:02;16.30;99.90
54832;DHT22;40730;53.068;6.572;2022-08-19T06:34:31;16.50;99.90
54832;DHT22;40730;53.068;6.572;2022-08-19T06:36:58;16.60;99.90
54832;DHT22;40730;53.068;6.572;2022-08-19T06:39:31;16.80;99.90
54832;DHT22;40730;53.068;6.572;2022-08-19T06:42:00;17.00;99.90
54832;DHT22;40730;53.068;6.572;2022-08-19T06:44:29;17.10;99.90
54832;DHT22;40730;53.068;6.572;2022-08-19T06:46:58;17.30;99.90
54832;DHT22;40730;53.068;6.572;2022-08-19T06:49:24;17.40;99.90
54832;DHT22;40730;53.068;6.572;2022-08-19T06:51:52;17.60;99.90
54832;DHT22;40730;53.068;6.572;2022-08-19T06:54:19;17.80;99.90
54832;DHT22;40730;53.068;6.572;2022-08-19T06:56:44;17.90;99.90
54832;DHT22;40730;53.068;6.572;2022-08-19T06:59:14;18.10;99.90
54832;DHT22;40730;53.068;6.572;2022-08-19T07:01:47;18.30;99.90
54832;DHT22;40730;53.068;6.572;2022-08-19T07:04:14;18.50;99.90
54832;DHT22;40730;53.068;6.572;2022-08-19T07:06:41;18.70;99.90
54832;DHT22;40730;53.068;6.572;2022-08-19T07:09:08;18.80;99.90
54832;DHT22;40730;53.068;6.572;2022-08-19T07:11:34;19.00;99.90
54832;DHT22;40730;53.068;6.572;2022-08-19T07:14:01;19.10;99.90
54832;DHT22;40730;53.068;6.572;2022-08-19T07:16:27;19.30;99.90
54832;DHT22;40730;53.068;6.572;2022-08-19T07:18:53;19.40;99.90
54832;DHT22;40730;53.068;6.572;2022-08-19T07:21:21;19.60;99.90
54832;DHT22;40730;53.068;6.572;2022-08-19T07:23:48;19.90;99.90
54832;DHT22;40730;53.068;6.572;2022-08-19T07:26:17;20.00;99.90
54832;DHT22;40730;53.068;6.572;2022-08-19T07:28:45;20.20;99.90
54832;DHT22;40730;53.068;6.572;2022-08-19T07:31:13;20.50;99.90
54832;DHT22;40730;53.068;6.572;2022-08-19T07:33:40;20.70;99.90
54832;DHT22;40730;53.068;6.572;2022-08-19T07:36:08;20.90;99.90
54832;DHT22;40730;53.068;6.572;2022-08-19T07:38:37;21.00;99.90
54832;DHT22;40730;53.068;6.572;2022-08-19T07:41:03;21.20;99.90
54832;DHT22;40730;53.068;6.572;2022-08-19T07:43:29;21.30;99.90
54832;DHT22;40730;53.068;6.572;2022-08-19T07:45:55;21.50;99.90
54832;DHT22;40730;53.068;6.572;2022-08-19T07:48:25;21.70;99.90
54832;DHT22;40730;53.068;6.572;2022-08-19T07:50:53;21.80;99.90
54832;DHT22;40730;53.068;6.572;2022-08-19T07:53:20;22.00;99.90
54832;DHT22;40730;53.068;6.572;2022-08-19T07:55:46;22.20;99.90
54832;DHT22;40730;53.068;6.572;2022-08-19T07:58:14;22.30;99.90
54832;DHT22;40730;53.068;6.572;2022-08-19T08:00:41;22.50;99.90
54832;DHT22;40730;53.068;6.572;2022-08-19T08:03:07;22.80;99.90
54832;DHT22;40730;53.068;6.572;2022-08-19T08:05:34;22.90;99.90
54832;DHT22;40730;53.068;6.572;2022-08-19T08:08:18;23.00;99.90
54832;DHT22;40730;53.068;6.572;2022-08-19T08:11:03;23.10;99.90
54832;DHT22;40730;53.068;6.572;2022-08-19T08:13:29;23.30;99.90
54832;DHT22;40730;53.068;6.572;2022-08-19T08:15:56;23.40;99.90
54832;DHT22;40730;53.068;6.572;2022-08-19T08:18:23;23.50;99.90
54832;DHT22;40730;53.068;6.572;2022-08-19T08:20:49;23.80;99.90
54832;DHT22;40730;53.068;6.572;2022-08-19T08:23:14;24.00;99.90
54832;DHT22;40730;53.068;6.572;2022-08-19T08:25:52;24.10;99.90
54832;DHT22;40730;53.068;6.572;2022-08-19T08:28:20;24.30;99.90
54832;DHT22;40730;53.068;6.572;2022-08-19T08:30:47;24.40;99.90
54832;DHT22;40730;53.068;6.572;2022-08-19T08:33:18;24.60;99.90
54832;DHT22;40730;53.068;6.572;2022-08-19T08:35:44;24.80;99.90
54832;DHT22;40730;53.068;6.572;2022-08-19T08:38:11;25.00;99.90
54832;DHT22;40730;53.068;6.572;2022-08-19T08:40:57;25.20;99.90
54832;DHT22;40730;53.068;6.572;2022-08-19T08:43:33;25.40;99.90
54832;DHT22;40730;53.068;6.572;2022-08-19T08:48:37;25.70;99.90
54832;DHT22;40730;53.068;6.572;2022-08-19T08:51:10;25.90;99.90
54832;DHT22;40730;53.068;6.572;2022-08-19T08:53:38;26.10;98.50
54832;DHT22;40730;53.068;6.572;2022-08-19T08:56:06;26.30;96.90
54832;DHT22;40730;53.068;6.572;2022-08-19T08:58:39;26.40;95.60
54832;DHT22;40730;53.068;6.572;2022-08-19T09:01:10;26.50;95.00
54832;DHT22;40730;53.068;6.572;2022-08-19T09:03:41;26.60;93.90
54832;DHT22;40730;53.068;6.572;2022-08-19T09:09:34;26.90;92.30
54832;DHT22;40730;53.068;6.572;2022-08-19T09:12:14;27.20;91.00
54832;DHT22;40730;53.068;6.572;2022-08-19T09:14:58;27.40;86.80
54832;DHT22;40730;53.068;6.572;2022-08-19T09:17:26;27.70;88.00
54832;DHT22;40730;53.068;6.572;2022-08-19T09:20:20;28.00;84.70
54832;DHT22;40730;53.068;6.572;2022-08-19T09:22:47;28.00;84.50
54832;DHT22;40730;53.068;6.572;2022-08-19T09:25:19;28.10;83.70
54832;DHT22;40730;53.068;6.572;2022-08-19T09:27:47;28.40;83.70
54832;DHT22;40730;53.068;6.572;2022-08-19T09:30:23;28.50;82.50
54832;DHT22;40730;53.068;6.572;2022-08-19T09:32:50;28.40;79.80
54832;DHT22;40730;53.068;6.572;2022-08-19T09:35:18;28.50;79.00
54832;DHT22;40730;53.068;6.572;2022-08-19T09:37:44;28.70;79.20
54832;DHT22;40730;53.068;6.572;2022-08-19T09:40:11;29.00;78.10
54832;DHT22;40730;53.068;6.572;2022-08-19T09:42:37;29.10;75.60
54832;DHT22;40730;53.068;6.572;2022-08-19T09:45:03;29.20;74.10
54832;DHT22;40730;53.068;6.572;2022-08-19T09:47:29;29.30;72.80
54832;DHT22;40730;53.068;6.572;2022-08-19T09:49:54;29.60;74.20
54832;DHT22;40730;53.068;6.572;2022-08-19T09:52:20;29.70;72.40
54832;DHT22;40730;53.068;6.572;2022-08-19T09:54:46;30.10;73.40
54832;DHT22;40730;53.068;6.572;2022-08-19T09:57:12;30.20;70.30
54832;DHT22;40730;53.068;6.572;2022-08-19T09:59:39;30.40;69.10
54832;DHT22;40730;53.068;6.572;2022-08-19T10:02:05;30.30;68.90
54832;DHT22;40730;53.068;6.572;2022-08-19T10:04:31;30.40;67.70
54832;DHT22;40730;53.068;6.572;2022-08-19T10:07:15;30.40;67.30
54832;DHT22;40730;53.068;6.572;2022-08-19T10:09:41;30.80;67.10
54832;DHT22;40730;53.068;6.572;2022-08-19T10:12:07;31.00;66.10
54832;DHT22;40730;53.068;6.572;2022-08-19T10:14:34;31.30;65.30
54832;DHT22;40730;53.068;6.572;2022-08-19T10:17:01;31.40;64.10
54832;DHT22;40730;53.068;6.572;2022-08-19T10:19:28;31.60;64.40
54832;DHT22;40730;53.068;6.572;2022-08-19T10:21:55;31.70;62.90
54832;DHT22;40730;53.068;6.572;2022-08-19T10:24:21;31.90;63.40
54832;DHT22;40730;53.068;6.572;2022-08-19T10:26:49;31.90;62.10
54832;DHT22;40730;53.068;6.572;2022-08-19T10:29:15;31.90;62.40
54832;DHT22;40730;53.068;6.572;2022-08-19T10:31:42;32.20;60.70
54832;DHT22;40730;53.068;6.572;2022-08-19T10:34:08;32.40;60.80
54832;DHT22;40730;53.068;6.572;2022-08-19T10:36:36;32.70;60.30
54832;DHT22;40730;53.068;6.572;2022-08-19T10:39:07;33.00;59.50
54832;DHT22;40730;53.068;6.572;2022-08-19T10:41:35;33.00;58.10
54832;DHT22;40730;53.068;6.572;2022-08-19T10:44:07;32.80;56.40
54832;DHT22;40730;53.068;6.572;2022-08-19T10:46:37;32.50;57.60
54832;DHT22;40730;53.068;6.572;2022-08-19T10:49:06;32.60;57.50
54832;DHT22;40730;53.068;6.572;2022-08-19T10:51:32;32.80;57.00
54832;DHT22;40730;53.068;6.572;2022-08-19T10:54:17;32.70;56.50
54832;DHT22;40730;53.068;6.572;2022-08-19T10:56:42;32.90;56.60
54832;DHT22;40730;53.068;6.572;2022-08-19T10:59:23;33.20;56.60
54832;DHT22;40730;53.068;6.572;2022-08-19T11:01:50;33.40;55.30
54832;DHT22;40730;53.068;6.572;2022-08-19T11:04:18;33.40;55.60
54832;DHT22;40730;53.068;6.572;2022-08-19T11:06:46;33.50;55.80
54832;DHT22;40730;53.068;6.572;2022-08-19T11:09:14;33.70;55.40
54832;DHT22;40730;53.068;6.572;2022-08-19T11:11:41;33.80;54.80
54832;DHT22;40730;53.068;6.572;2022-08-19T11:14:17;33.70;54.70
54832;DHT22;40730;53.068;6.572;2022-08-19T11:16:45;33.50;54.10
54832;DHT22;40730;53.068;6.572;2022-08-19T11:19:11;33.30;54.10
54832;DHT22;40730;53.068;6.572;2022-08-19T11:21:40;32.30;55.70
54832;DHT22;40730;53.068;6.572;2022-08-19T11:24:09;32.00;56.90
54832;DHT22;40730;53.068;6.572;2022-08-19T11:26:37;32.20;57.10
54832;DHT22;40730;53.068;6.572;2022-08-19T11:29:05;32.00;56.60
54832;DHT22;40730;53.068;6.572;2022-08-19T11:31:35;31.20;56.30
54832;DHT22;40730;53.068;6.572;2022-08-19T11:34:04;31.10;57.80
54832;DHT22;40730;53.068;6.572;2022-08-19T11:36:31;31.60;57.20
54832;DHT22;40730;53.068;6.572;2022-08-19T11:38:58;32.10;56.30
54832;DHT22;40730;53.068;6.572;2022-08-19T11:41:24;32.40;56.40
54832;DHT22;40730;53.068;6.572;2022-08-19T11:43:54;33.00;54.90
54832;DHT22;40730;53.068;6.572;2022-08-19T11:46:21;32.90;54.90
54832;DHT22;40730;53.068;6.572;2022-08-19T11:48:47;32.70;55.70
54832;DHT22;40730;53.068;6.572;2022-08-19T11:51:17;32.50;56.70
54832;DHT22;40730;53.068;6.572;2022-08-19T11:53:44;31.90;58.20
54832;DHT22;40730;53.068;6.572;2022-08-19T11:56:11;31.20;59.40
54832;DHT22;40730;53.068;6.572;2022-08-19T11:58:37;30.70;60.20
54832;DHT22;40730;53.068;6.572;2022-08-19T12:01:07;31.10;59.10
54832;DHT22;40730;53.068;6.572;2022-08-19T12:03:34;31.60;59.10
54832;DHT22;40730;53.068;6.572;2022-08-19T12:06:07;31.60;58.40
54832;DHT22;40730;53.068;6.572;2022-08-19T12:08:33;31.20;59.10
54832;DHT22;40730;53.068;6.572;2022-08-19T12:10:59;30.90;59.40
54832;DHT22;40730;53.068;6.572;2022-08-19T12:13:28;30.40;60.90
54832;DHT22;40730;53.068;6.572;2022-08-19T12:15:53;30.10;61.70
54832;DHT22;40730;53.068;6.572;2022-08-19T12:18:19;29.90;61.80
54832;DHT22;40730;53.068;6.572;2022-08-19T12:20:46;29.60;62.80
54832;DHT22;40730;53.068;6.572;2022-08-19T12:23:13;29.30;63.10
54832;DHT22;40730;53.068;6.572;2022-08-19T12:25:44;29.10;63.30
54832;DHT22;40730;53.068;6.572;2022-08-19T12:28:20;29.00;62.90
54832;DHT22;40730;53.068;6.572;2022-08-19T12:30:48;28.80;63.40
54832;DHT22;40730;53.068;6.572;2022-08-19T12:33:14;28.60;63.00
54832;DHT22;40730;53.068;6.572;2022-08-19T12:35:44;28.40;62.90
54832;DHT22;40730;53.068;6.572;2022-08-19T12:38:12;28.40;63.20
54832;DHT22;40730;53.068;6.572;2022-08-19T12:40:37;28.20;64.10
54832;DHT22;40730;53.068;6.572;2022-08-19T12:43:05;28.20;64.90
54832;DHT22;40730;53.068;6.572;2022-08-19T12:45:31;28.30;65.10
54832;DHT22;40730;53.068;6.572;2022-08-19T12:47:57;28.80;64.10
54832;DHT22;40730;53.068;6.572;2022-08-19T12:50:22;30.00;61.00
54832;DHT22;40730;53.068;6.572;2022-08-19T12:52:48;30.90;58.60
54832;DHT22;40730;53.068;6.572;2022-08-19T12:55:14;31.30;55.80
54832;DHT22;40730;53.068;6.572;2022-08-19T12:57:40;30.60;56.30
54832;DHT22;40730;53.068;6.572;2022-08-19T13:00:12;30.00;57.00
54832;DHT22;40730;53.068;6.572;2022-08-19T13:02:41;29.50;58.10
54832;DHT22;40730;53.068;6.572;2022-08-19T13:05:09;29.10;60.40
54832;DHT22;40730;53.068;6.572;2022-08-19T13:07:37;29.00;60.80
54832;DHT22;40730;53.068;6.572;2022-08-19T13:10:08;28.80;61.50
54832;DHT22;40730;53.068;6.572;2022-08-19T13:12:35;28.60;61.60
54832;DHT22;40730;53.068;6.572;2022-08-19T13:15:00;28.30;61.30
54832;DHT22;40730;53.068;6.572;2022-08-19T13:17:26;28.20;60.90
54832;DHT22;40730;53.068;6.572;2022-08-19T13:19:52;28.00;62.40
54832;DHT22;40730;53.068;6.572;2022-08-19T13:22:18;27.80;63.80
54832;DHT22;40730;53.068;6.572;2022-08-19T13:24:44;27.70;66.00
54832;DHT22;40730;53.068;6.572;2022-08-19T13:27:09;27.80;67.80
54832;DHT22;40730;53.068;6.572;2022-08-19T13:29:35;27.90;68.10
54832;DHT22;40730;53.068;6.572;2022-08-19T13:32:19;27.90;68.90
54832;DHT22;40730;53.068;6.572;2022-08-19T13:35:04;27.70;69.80
54832;DHT22;40730;53.068;6.572;2022-08-19T13:37:30;27.20;71.50
54832;DHT22;40730;53.068;6.572;2022-08-19T13:40:11;26.80;74.20
54832;DHT22;40730;53.068;6.572;2022-08-19T13:42:39;26.50;76.90
54832;DHT22;40730;53.068;6.572;2022-08-19T13:45:05;26.10;77.70
54832;DHT22;40730;53.068;6.572;2022-08-19T13:47:32;25.80;79.50
54832;DHT22;40730;53.068;6.572;2022-08-19T13:50:00;25.50;81.70
54832;DHT22;40730;53.068;6.572;2022-08-19T13:52:27;25.20;83.10
54832;DHT22;40730;53.068;6.572;2022-08-19T13:54:53;24.90;85.60
54832;DHT22;40730;53.068;6.572;2022-08-19T13:57:19;24.70;88.00
54832;DHT22;40730;53.068;6.572;2022-08-19T13:59:45;24.50;90.40
54832;DHT22;40730;53.068;6.572;2022-08-19T14:02:10;24.40;91.80
54832;DHT22;40730;53.068;6.572;2022-08-19T14:04:36;24.10;92.00
54832;DHT22;40730;53.068;6.572;2022-08-19T14:07:03;24.10;92.50
54832;DHT22;40730;53.068;6.572;2022-08-19T14:09:29;23.90;92.90
54832;DHT22;40730;53.068;6.572;2022-08-19T14:11:55;23.80;93.70
54832;DHT22;40730;53.068;6.572;2022-08-19T14:14:20;23.70;94.70
54832;DHT22;40730;53.068;6.572;2022-08-19T14:16:47;23.70;95.80
54832;DHT22;40730;53.068;6.572;2022-08-19T14:19:13;23.70;96.70
54832;DHT22;40730;53.068;6.572;2022-08-19T14:21:39;23.70;97.50
54832;DHT22;40730;53.068;6.572;2022-08-19T14:24:06;23.70;97.70
54832;DHT22;40730;53.068;6.572;2022-08-19T14:26:32;23.80;97.70
54832;DHT22;40730;53.068;6.572;2022-08-19T14:28:58;23.80;98.00
54832;DHT22;40730;53.068;6.572;2022-08-19T14:31:23;23.80;97.90
54832;DHT22;40730;53.068;6.572;2022-08-19T14:33:50;23.70;98.20
54832;DHT22;40730;53.068;6.572;2022-08-19T14:36:17;23.70;98.50
54832;DHT22;40730;53.068;6.572;2022-08-19T14:38:42;23.70;99.20
54832;DHT22;40730;53.068;6.572;2022-08-19T14:43:35;23.70;99.90
54832;DHT22;40730;53.068;6.572;2022-08-19T14:46:01;23.70;99.90
54832;DHT22;40730;53.068;6.572;2022-08-19T14:48:27;23.70;99.90
54832;DHT22;40730;53.068;6.572;2022-08-19T14:50:52;23.70;99.90
54832;DHT22;40730;53.068;6.572;2022-08-19T14:53:18;23.70;99.90
54832;DHT22;40730;53.068;6.572;2022-08-19T14:55:45;23.70;99.90
54832;DHT22;40730;53.068;6.572;2022-08-19T14:58:12;23.60;99.90
54832;DHT22;40730;53.068;6.572;2022-08-19T15:00:38;23.50;99.90
54832;DHT22;40730;53.068;6.572;2022-08-19T15:03:04;23.50;99.90
54832;DHT22;40730;53.068;6.572;2022-08-19T15:05:29;23.40;99.90
54832;DHT22;40730;53.068;6.572;2022-08-19T15:07:55;23.30;99.90
54832;DHT22;40730;53.068;6.572;2022-08-19T15:10:22;23.30;99.90
54832;DHT22;40730;53.068;6.572;2022-08-19T15:12:48;23.30;99.90
54832;DHT22;40730;53.068;6.572;2022-08-19T15:15:15;23.40;99.90
54832;DHT22;40730;53.068;6.572;2022-08-19T15:17:43;23.40;99.90
54832;DHT22;40730;53.068;6.572;2022-08-19T15:20:10;23.60;99.90
54832;DHT22;40730;53.068;6.572;2022-08-19T15:22:36;23.70;99.90
54832;DHT22;40730;53.068;6.572;2022-08-19T15:25:03;23.80;99.90
54832;DHT22;40730;53.068;6.572;2022-08-19T15:27:29;23.80;99.90
54832;DHT22;40730;53.068;6.572;2022-08-19T15:29:54;23.80;99.90
54832;DHT22;40730;53.068;6.572;2022-08-19T15:32:22;23.90;99.90
54832;DHT22;40730;53.068;6.572;2022-08-19T15:34:48;23.90;99.90
54832;DHT22;40730;53.068;6.572;2022-08-19T15:37:14;24.10;99.90
54832;DHT22;40730;53.068;6.572;2022-08-19T15:39:40;24.10;99.90
54832;DHT22;40730;53.068;6.572;2022-08-19T15:42:06;24.20;99.90
54832;DHT22;40730;53.068;6.572;2022-08-19T15:44:32;24.30;99.90